createdAt,value
2019-01-12T00:00:23.384Z,100463.59
2019-01-12T00:02:51.168Z,100464.83
2019-01-12T00:05:18.920Z,100465.05
2019-01-12T00:07:46.810Z,100459.67
2019-01-12T00:10:14.542Z,100460.64
2019-01-12T00:12:42.304Z,100461.66
2019-01-12T00:15:10.157Z,100460.77
2019-01-12T00:17:37.919Z,100465.23
2019-01-12T00:20:06.479Z,100471.45
2019-01-12T00:22:34.238Z,100465.77
2019-01-12T00:25:02.017Z,100466.23
2019-01-12T00:27:29.813Z,100467.11
2019-01-12T00:29:58.646Z,100465.58
2019-01-12T00:32:26.414Z,100470.19
2019-01-12T00:34:54.167Z,100471.86
2019-01-12T00:37:22.041Z,100476.41
2019-01-12T00:39:49.769Z,100477.74
2019-01-12T00:42:17.550Z,100471.40
2019-01-12T00:44:45.541Z,100473.33
2019-01-12T00:47:13.309Z,100486.50
2019-01-12T00:49:41.067Z,100482.24
2019-01-12T00:52:08.837Z,100488.82
2019-01-12T00:54:38.587Z,100485.52
2019-01-12T00:57:06.267Z,100493.90
2019-01-12T00:59:34.047Z,100493.30
2019-01-12T01:02:01.778Z,100494.61
2019-01-12T01:04:29.552Z,100498.54
2019-01-12T01:06:57.307Z,100499.52
2019-01-12T01:09:25.172Z,100499.29
2019-01-12T01:11:52.901Z,100509.23
2019-01-12T01:14:22.091Z,100512.41
2019-01-12T01:16:49.925Z,100513.73
2019-01-12T01:19:17.680Z,100517.05
2019-01-12T01:21:45.423Z,100513.06
2019-01-12T01:24:13.189Z,100521.64
2019-01-12T01:26:42.122Z,100519.54
2019-01-12T01:29:09.906Z,100515.28
2019-01-12T01:31:37.677Z,100512.98
2019-01-12T01:34:05.441Z,100518.02
2019-01-12T01:36:33.181Z,100518.80
2019-01-12T01:39:00.967Z,100523.97
2019-01-12T01:41:28.981Z,100520.71
2019-01-12T01:43:56.757Z,100520.02
2019-01-12T01:46:26.558Z,100527.50
2019-01-12T01:48:54.336Z,100529.37
2019-01-12T01:51:22.067Z,100524.73
2019-01-12T01:53:49.838Z,100521.86
2019-01-12T01:56:17.560Z,100516.39
2019-01-12T01:58:45.665Z,100510.47
2019-01-12T02:01:14.634Z,100513.19
2019-01-12T02:03:42.412Z,100517.66
2019-01-12T02:06:10.936Z,100518.89
2019-01-12T02:08:38.934Z,100524.23
2019-01-12T02:11:06.914Z,100522.19
2019-01-12T02:13:34.872Z,100530.80
2019-01-12T02:16:02.650Z,100525.64
2019-01-12T02:18:30.398Z,100534.59
2019-01-12T02:20:58.519Z,100537.30
2019-01-12T02:23:27.708Z,100530.33
2019-01-12T02:25:55.654Z,100529.59
2019-01-12T02:28:23.692Z,100531.11
2019-01-12T02:30:52.248Z,100531.58
2019-01-12T02:33:19.982Z,100529.53
2019-01-12T02:35:47.735Z,100527.01
2019-01-12T02:38:17.529Z,100524.39
2019-01-12T02:40:45.497Z,100526.05
2019-01-12T02:43:13.251Z,100518.58
2019-01-12T02:45:40.980Z,100523.27
2019-01-12T02:48:08.727Z,100523.67
2019-01-12T02:50:36.489Z,100522.16
2019-01-12T02:53:05.707Z,100523.73
2019-01-12T02:55:33.478Z,100521.81
2019-01-12T02:58:01.965Z,100520.62
2019-01-12T03:00:29.743Z,100530.73
2019-01-12T03:02:59.601Z,100526.85
2019-01-12T03:05:27.358Z,100522.22
2019-01-12T03:07:55.135Z,100521.86
2019-01-12T03:10:23.181Z,100518.25
2019-01-12T03:12:50.907Z,100517.05
2019-01-12T03:15:18.677Z,100521.58
2019-01-12T03:17:46.435Z,100520.50
2019-01-12T03:20:16.587Z,100519.77
2019-01-12T03:22:44.546Z,100516.47
2019-01-12T03:25:17.514Z,100519.59
2019-01-12T03:27:42.313Z,100520.51
2019-01-12T03:30:16.236Z,100518.79
2019-01-12T03:32:43.937Z,100517.39
2019-01-12T03:35:13.017Z,100517.55
2019-01-12T03:37:40.788Z,100517.89
2019-01-12T03:40:20.321Z,100515.25
2019-01-12T03:42:48.183Z,100515.97
2019-01-12T03:45:17.266Z,100501.44
2019-01-12T03:47:45.129Z,100510.45
2019-01-12T03:50:14.256Z,100511.63
2019-01-12T03:52:42.125Z,100505.14
2019-01-12T03:55:10.151Z,100506.73
2019-01-12T03:57:38.149Z,100507.63
2019-01-12T04:00:19.063Z,100501.75
2019-01-12T04:02:47.181Z,100492.80
2019-01-12T04:05:14.931Z,100492.42
2019-01-12T04:07:42.697Z,100483.06
2019-01-12T04:10:10.674Z,100489.44
2019-01-12T04:12:38.781Z,100486.08
2019-01-12T04:15:08.148Z,100483.80
2019-01-12T04:17:35.883Z,100482.00
2019-01-12T04:20:07.362Z,100486.95
2019-01-12T04:22:35.164Z,100485.45
2019-01-12T04:25:03.260Z,100488.75
2019-01-12T04:27:31.004Z,100498.39
2019-01-12T04:29:58.743Z,100489.71
2019-01-12T04:32:26.552Z,100492.66
2019-01-12T04:34:54.289Z,100494.75
2019-01-12T04:37:22.074Z,100492.78
2019-01-12T04:39:49.789Z,100487.50
2019-01-12T04:42:17.570Z,100490.11
2019-01-12T04:44:45.325Z,100481.31
2019-01-12T04:47:13.088Z,100486.47
2019-01-12T04:49:40.877Z,100484.08
2019-01-12T04:52:08.637Z,100481.03
2019-01-12T04:54:36.464Z,100475.09
2019-01-12T04:57:04.255Z,100479.42
2019-01-12T04:59:31.968Z,100469.56
2019-01-12T05:01:59.777Z,100467.95
2019-01-12T05:04:27.488Z,100478.11
2019-01-12T05:06:55.260Z,100480.60
2019-01-12T05:09:23.443Z,100485.27
2019-01-12T05:11:51.180Z,100485.75
2019-01-12T05:14:18.917Z,100484.07
2019-01-12T05:16:46.909Z,100477.27
2019-01-12T05:19:15.189Z,100474.20
2019-01-12T05:21:42.921Z,100482.97
2019-01-12T05:24:11.441Z,100486.30
2019-01-12T05:26:39.167Z,100484.91
2019-01-12T05:29:06.923Z,100483.83
2019-01-12T05:31:34.953Z,100480.94
2019-01-12T05:34:02.693Z,100479.23
2019-01-12T05:36:32.140Z,100477.98
2019-01-12T05:39:00.172Z,100482.09
2019-01-12T05:41:28.195Z,100488.41
2019-01-12T05:43:55.969Z,100483.80
2019-01-12T05:46:23.706Z,100481.06
2019-01-12T05:48:51.485Z,100480.76
2019-01-12T05:51:19.308Z,100491.17
2019-01-12T05:53:47.063Z,100491.50
2019-01-12T05:56:14.801Z,100494.47
2019-01-12T05:58:42.567Z,100492.20
2019-01-12T06:01:10.308Z,100488.00
2019-01-12T06:03:38.054Z,100496.90
2019-01-12T06:06:06.606Z,100490.73
2019-01-12T06:08:36.513Z,100494.22
2019-01-12T06:11:04.287Z,100494.09
2019-01-12T06:13:32.270Z,100492.08
2019-01-12T06:16:00.022Z,100498.05
2019-01-12T06:18:27.826Z,100501.00
2019-01-12T06:20:55.585Z,100507.19
2019-01-12T06:23:23.366Z,100502.93
2019-01-12T06:25:51.071Z,100506.57
2019-01-12T06:28:18.822Z,100501.19
2019-01-12T06:30:46.579Z,100504.73
2019-01-12T06:33:14.340Z,100504.33
2019-01-12T06:35:42.078Z,100502.59
2019-01-12T06:38:09.808Z,100499.76
2019-01-12T06:40:37.567Z,100506.66
2019-01-12T06:43:05.555Z,100508.30
2019-01-12T06:45:33.432Z,100505.20
2019-01-12T06:48:01.192Z,100505.67
2019-01-12T06:50:29.032Z,100497.23
2019-01-12T06:52:56.772Z,100503.05
2019-01-12T06:55:24.518Z,100510.48
2019-01-12T06:57:52.278Z,100514.84
2019-01-12T07:00:21.665Z,100515.03
2019-01-12T07:02:52.227Z,100512.08
2019-01-12T07:05:19.988Z,100510.77
2019-01-12T07:07:47.746Z,100510.48
2019-01-12T07:10:15.568Z,100512.29
2019-01-12T07:12:43.391Z,100512.48
2019-01-12T07:15:12.333Z,100502.27
2019-01-12T07:17:40.411Z,100511.17
2019-01-12T07:20:12.095Z,100513.04
2019-01-12T07:22:39.933Z,100511.58
2019-01-12T07:25:07.805Z,100514.66
2019-01-12T07:27:35.542Z,100509.45
2019-01-12T07:30:09.387Z,100513.52
2019-01-12T07:32:37.407Z,100512.23
2019-01-12T07:35:05.166Z,100514.50
2019-01-12T07:37:33.273Z,100513.25
2019-01-12T07:40:01.064Z,100509.09
2019-01-12T07:42:29.267Z,100512.13
2019-01-12T07:44:57.076Z,100516.64
2019-01-12T07:47:24.933Z,100517.23
2019-01-12T07:49:52.881Z,100517.52
2019-01-12T07:52:20.767Z,100520.70
2019-01-12T07:54:48.788Z,100517.08
2019-01-12T07:57:16.575Z,100517.56
2019-01-12T07:59:44.307Z,100514.48
2019-01-12T08:02:12.342Z,100525.69
2019-01-12T08:04:40.210Z,100514.08
2019-01-12T08:07:08.253Z,100510.47
2019-01-12T08:09:36.497Z,100502.72
2019-01-12T08:12:04.569Z,100500.35
2019-01-12T08:14:32.328Z,100505.58
2019-01-12T08:17:00.218Z,100504.59
2019-01-12T08:19:28.109Z,100491.48
2019-01-12T08:21:59.441Z,100498.14
2019-01-12T08:24:27.148Z,100496.34
2019-01-12T08:26:54.919Z,100493.40
2019-01-12T08:29:22.936Z,100491.17
2019-01-12T08:31:50.851Z,100492.62
2019-01-12T08:34:18.584Z,100494.58
2019-01-12T08:36:46.335Z,100492.19
2019-01-12T08:39:14.092Z,100488.60
2019-01-12T08:41:42.272Z,100481.72
2019-01-12T08:44:10.116Z,100486.27
2019-01-12T08:46:38.014Z,100489.27
2019-01-12T08:49:06.006Z,100486.31
2019-01-12T08:51:33.916Z,100487.27
2019-01-12T08:54:02.234Z,100477.67
2019-01-12T08:56:30.003Z,100479.66
2019-01-12T08:58:57.928Z,100474.02
2019-01-12T09:01:25.698Z,100472.94
2019-01-12T09:03:56.406Z,100467.97
2019-01-12T09:06:24.428Z,100467.23
2019-01-12T09:08:52.346Z,100468.56
2019-01-12T09:11:20.414Z,100466.19
2019-01-12T09:13:48.275Z,100464.46
2019-01-12T09:16:16.026Z,100462.37
2019-01-12T09:18:43.841Z,100458.73
2019-01-12T09:21:11.575Z,100461.66
2019-01-12T09:23:40.519Z,100452.80
2019-01-12T09:26:08.447Z,100450.81
2019-01-12T09:28:36.236Z,100456.51
2019-01-12T09:31:04.355Z,100447.63
2019-01-12T09:33:32.113Z,100447.31
2019-01-12T09:36:05.469Z,100436.52
2019-01-12T09:38:33.409Z,100438.41
2019-01-12T09:41:01.167Z,100441.62
2019-01-12T09:43:29.331Z,100430.21
2019-01-12T09:45:57.073Z,100435.67
2019-01-12T09:48:24.813Z,100431.02
2019-01-12T09:50:52.548Z,100427.40
2019-01-12T09:53:20.634Z,100427.12
2019-01-12T09:55:48.367Z,100418.59
2019-01-12T09:58:16.193Z,100412.06
2019-01-12T10:00:43.929Z,100410.72
2019-01-12T10:03:11.813Z,100405.76
2019-01-12T10:05:39.630Z,100401.72
2019-01-12T10:08:07.445Z,100405.12
2019-01-12T10:10:35.239Z,100390.82
2019-01-12T10:13:03.101Z,100382.52
2019-01-12T10:15:30.866Z,100381.06
2019-01-12T10:17:58.727Z,100386.28
2019-01-12T10:20:31.623Z,100380.27
2019-01-12T10:22:59.530Z,100379.59
2019-01-12T10:25:27.360Z,100375.87
2019-01-12T10:27:55.158Z,100369.37
2019-01-12T10:30:24.909Z,100357.79
2019-01-12T10:32:53.504Z,100365.14
2019-01-12T10:37:48.751Z,100352.59
2019-01-12T10:40:17.202Z,100358.78
2019-01-12T10:42:46.114Z,100349.41
2019-01-12T10:45:15.270Z,100343.01
2019-01-12T10:47:44.558Z,100344.44
2019-01-12T10:50:17.440Z,100341.63
2019-01-12T10:52:45.225Z,100334.41
2019-01-12T10:55:12.973Z,100327.98
2019-01-12T10:57:40.828Z,100336.82
2019-01-12T11:00:15.876Z,100327.53
2019-01-12T11:02:43.617Z,100322.27
2019-01-12T11:05:11.513Z,100321.45
2019-01-12T11:07:39.929Z,100313.84
2019-01-12T11:10:10.706Z,100313.23
2019-01-12T11:12:38.604Z,100312.61
2019-01-12T11:15:09.401Z,100306.70
2019-01-12T11:17:37.143Z,100297.42
2019-01-12T11:20:05.711Z,100305.64
2019-01-12T11:22:33.477Z,100293.41
2019-01-12T11:25:02.802Z,100305.52
2019-01-12T11:27:30.567Z,100294.95
2019-01-12T11:29:58.364Z,100285.44
2019-01-12T11:32:26.467Z,100285.41
2019-01-12T11:34:55.531Z,100279.77
2019-01-12T11:37:23.286Z,100272.22
2019-01-12T11:39:51.086Z,100267.33
2019-01-12T11:42:19.063Z,100255.91
2019-01-12T11:44:48.948Z,100245.59
2019-01-12T11:47:16.792Z,100234.89
2019-01-12T11:49:44.637Z,100222.68
2019-01-12T11:52:12.361Z,100217.00
2019-01-12T11:54:40.144Z,100208.44
2019-01-12T11:57:07.919Z,100209.02
2019-01-12T11:59:35.891Z,100202.22
2019-01-12T12:02:03.788Z,100197.27
2019-01-12T12:04:33.104Z,100194.09
2019-01-12T12:07:00.999Z,100181.06
2019-01-12T12:09:28.800Z,100181.48
2019-01-12T12:11:56.532Z,100175.58
2019-01-12T12:14:24.370Z,100167.86
2019-01-12T12:16:52.138Z,100162.20
2019-01-12T12:19:19.862Z,100160.11
2019-01-12T12:21:47.669Z,100151.84
2019-01-12T12:24:15.412Z,100144.69
2019-01-12T12:26:43.211Z,100140.87
2019-01-12T12:29:10.998Z,100130.73
2019-01-12T12:31:38.757Z,100123.84
2019-01-12T12:34:06.497Z,100123.16
2019-01-12T12:36:34.292Z,100116.54
2019-01-12T12:39:02.056Z,100117.31
2019-01-12T12:41:29.806Z,100108.19
2019-01-12T12:43:57.639Z,100099.09
2019-01-12T12:46:25.410Z,100096.31
2019-01-12T12:48:53.178Z,100087.55
2019-01-12T12:51:20.950Z,100090.23
2019-01-12T12:53:48.700Z,100097.25
2019-01-12T12:56:16.490Z,100100.70
2019-01-12T12:58:44.252Z,100088.34
2019-01-12T13:01:12.152Z,100082.34
2019-01-12T13:03:39.892Z,100083.48
2019-01-12T13:06:07.720Z,100071.91
2019-01-12T13:08:35.518Z,100071.86
2019-01-12T13:11:03.385Z,100075.06
2019-01-12T13:13:31.172Z,100079.39
2019-01-12T13:15:59.091Z,100070.83
2019-01-12T13:18:27.129Z,100061.11
2019-01-12T13:20:54.917Z,100062.04
2019-01-12T13:23:22.661Z,100059.20
2019-01-12T13:25:51.182Z,100055.67
2019-01-12T13:28:18.942Z,100052.44
2019-01-12T13:30:46.694Z,100043.19
2019-01-12T13:33:14.450Z,100037.71
2019-01-12T13:35:42.213Z,100038.84
2019-01-12T13:38:09.971Z,100022.54
2019-01-12T13:40:37.740Z,100023.78
2019-01-12T13:43:05.513Z,100014.06
2019-01-12T13:45:33.357Z,100016.54
2019-01-12T13:48:01.106Z,100010.46
2019-01-12T13:50:28.880Z,100003.13
2019-01-12T13:52:56.768Z,99988.09
2019-01-12T13:55:24.574Z,99991.28
2019-01-12T13:57:52.474Z,99992.95
2019-01-12T14:00:33.654Z,99998.88
2019-01-12T14:03:01.905Z,99997.83
2019-01-12T14:05:29.625Z,99994.34
2019-01-12T14:07:57.620Z,99987.09
2019-01-12T14:10:25.606Z,99982.67
2019-01-12T14:12:53.505Z,99993.50
2019-01-12T14:15:21.990Z,99981.66
2019-01-12T14:17:49.782Z,99976.66
2019-01-12T14:20:21.430Z,99974.81
2019-01-12T14:22:49.271Z,99969.95
2019-01-12T14:25:17.113Z,99972.22
2019-01-12T14:27:45.138Z,99974.50
2019-01-12T14:30:15.912Z,99964.78
2019-01-12T14:32:43.762Z,99960.29
2019-01-12T14:35:12.375Z,99950.69
2019-01-12T14:37:40.938Z,99952.38
2019-01-12T14:40:14.070Z,99948.54
2019-01-12T14:42:42.040Z,99944.98
2019-01-12T14:45:17.228Z,99923.09
2019-01-12T14:47:45.126Z,99926.44
2019-01-12T14:50:13.005Z,99924.28
2019-01-12T14:52:40.870Z,99920.25
2019-01-12T14:55:10.206Z,99910.48
2019-01-12T14:57:37.957Z,99916.03
2019-01-12T15:00:15.688Z,99905.41
2019-01-12T15:02:46.205Z,99908.61
2019-01-12T15:05:16.249Z,99904.17
2019-01-12T15:07:44.002Z,99884.73
2019-01-12T15:10:14.225Z,99882.47
2019-01-12T15:12:42.021Z,99883.73
2019-01-12T15:15:11.021Z,99877.49
2019-01-12T15:17:39.145Z,99872.68
2019-01-12T15:20:11.974Z,99873.69
2019-01-12T15:22:43.267Z,99873.36
2019-01-12T15:25:11.470Z,99872.59
2019-01-12T15:27:39.301Z,99864.25
2019-01-12T15:30:12.810Z,99856.08
2019-01-12T15:32:40.571Z,99852.28
2019-01-12T15:35:09.429Z,99849.83
2019-01-12T15:37:37.250Z,99840.87
2019-01-12T15:40:07.495Z,99845.80
2019-01-12T15:42:35.237Z,99842.70
2019-01-12T15:45:04.427Z,99833.92
2019-01-12T15:47:34.541Z,99832.31
2019-01-12T15:50:02.562Z,99837.14
2019-01-12T15:52:30.305Z,99827.67
2019-01-12T15:54:59.478Z,99825.84
2019-01-12T15:57:27.267Z,99828.39
2019-01-12T15:59:55.123Z,99819.59
2019-01-12T16:02:22.843Z,99813.77
2019-01-12T16:04:50.621Z,99809.67
2019-01-12T16:07:19.497Z,99814.02
2019-01-12T16:09:48.379Z,99804.95
2019-01-12T16:12:16.190Z,99798.88
2019-01-12T16:14:44.267Z,99792.29
2019-01-12T16:17:12.070Z,99787.79
2019-01-12T16:19:41.074Z,99782.84
2019-01-12T16:22:09.250Z,99782.00
2019-01-12T16:24:37.763Z,99777.70
2019-01-12T16:27:06.679Z,99780.96
2019-01-12T16:29:34.744Z,99774.63
2019-01-12T16:32:02.678Z,99763.52
2019-01-12T16:34:47.528Z,99765.47
2019-01-12T16:37:21.058Z,99765.05
2019-01-12T16:39:48.866Z,99758.66
2019-01-12T16:42:25.944Z,99755.77
2019-01-12T16:44:51.510Z,99754.14
2019-01-12T16:47:29.036Z,99738.81
2019-01-12T16:49:59.052Z,99735.44
2019-01-12T16:52:26.796Z,99737.05
2019-01-12T16:54:54.539Z,99731.81
2019-01-12T16:57:22.336Z,99730.83
2019-01-12T16:59:50.110Z,99728.95
2019-01-12T17:02:18.193Z,99731.92
2019-01-12T17:04:48.282Z,99720.92
2019-01-12T17:07:18.075Z,99723.69
2019-01-12T17:09:48.184Z,99713.94
2019-01-12T17:12:15.963Z,99711.36
2019-01-12T17:14:43.758Z,99711.48
2019-01-12T17:17:11.503Z,99710.52
2019-01-12T17:19:39.278Z,99718.87
2019-01-12T17:22:07.001Z,99717.95
2019-01-12T17:24:48.221Z,99705.50
2019-01-12T17:27:30.545Z,99700.86
2019-01-12T17:30:15.918Z,99704.88
2019-01-12T17:32:55.058Z,99698.31
2019-01-12T17:35:48.777Z,99696.97
2019-01-12T17:38:17.813Z,99685.64
2019-01-12T17:40:45.567Z,99686.06
2019-01-12T17:43:27.876Z,99681.42
2019-01-12T17:45:55.681Z,99669.80
2019-01-12T17:48:23.421Z,99675.24
2019-01-12T17:50:59.355Z,99673.19
2019-01-12T17:53:27.917Z,99676.38
2019-01-12T17:55:57.724Z,99685.23
2019-01-12T17:58:25.475Z,99673.28
2019-01-12T18:00:57.072Z,99668.55
2019-01-12T18:03:25.173Z,99662.91
2019-01-12T18:05:53.079Z,99664.84
2019-01-12T18:08:20.857Z,99670.61
2019-01-12T18:10:49.819Z,99670.63
2019-01-12T18:13:17.874Z,99678.84
2019-01-12T18:15:45.642Z,99681.92
2019-01-12T18:18:13.399Z,99676.16
2019-01-12T18:20:41.391Z,99675.66
2019-01-12T18:23:09.168Z,99681.34
2019-01-12T18:25:38.870Z,99684.60
2019-01-12T18:28:06.601Z,99686.15
2019-01-12T18:30:34.735Z,99679.79
2019-01-12T18:33:02.882Z,99681.09
2019-01-12T18:35:30.681Z,99681.84
2019-01-12T18:37:58.476Z,99671.05
2019-01-12T18:40:26.278Z,99672.27
2019-01-12T18:43:10.955Z,99675.87
2019-01-12T18:45:38.836Z,99673.61
2019-01-12T18:48:06.600Z,99666.09
2019-01-12T18:50:34.410Z,99673.09
2019-01-12T18:53:02.214Z,99677.83
2019-01-12T18:55:29.988Z,99687.91
2019-01-12T18:57:58.701Z,99673.90
2019-01-12T19:00:28.694Z,99675.48
2019-01-12T19:02:56.606Z,99680.20
2019-01-12T19:05:24.857Z,99678.75
2019-01-12T19:07:53.200Z,99679.69
2019-01-12T19:10:21.366Z,99667.63
2019-01-12T19:13:11.656Z,99670.09
2019-01-12T19:15:39.531Z,99672.27
2019-01-12T19:18:07.324Z,99676.07
2019-01-12T19:20:35.150Z,99663.94
2019-01-12T19:23:03.417Z,99665.57
2019-01-12T19:25:31.238Z,99664.97
2019-01-12T19:27:59.068Z,99658.67
2019-01-12T19:30:43.282Z,99663.31
2019-01-12T19:33:08.723Z,99660.13
2019-01-12T19:36:04.849Z,99651.17
2019-01-12T19:38:32.944Z,99649.43
2019-01-12T19:41:00.804Z,99654.98
2019-01-12T19:43:42.549Z,99642.41
2019-01-12T19:46:28.711Z,99639.00
2019-01-12T19:48:56.489Z,99635.13
2019-01-12T19:51:24.335Z,99636.98
2019-01-12T19:53:52.133Z,99634.39
2019-01-12T19:56:21.033Z,99635.86
2019-01-12T19:58:50.137Z,99639.86
2019-01-12T20:01:18.419Z,99637.20
2019-01-12T20:03:46.262Z,99639.75
2019-01-12T20:06:17.141Z,99641.09
2019-01-12T20:08:43.842Z,99643.34
2019-01-12T20:11:11.666Z,99634.81
2019-01-12T20:13:39.469Z,99633.28
2019-01-12T20:16:07.291Z,99636.98
2019-01-12T20:18:35.483Z,99630.30
2019-01-12T20:21:04.392Z,99637.08
2019-01-12T20:23:32.137Z,99627.80
2019-01-12T20:25:59.924Z,99621.13
2019-01-12T20:28:27.651Z,99614.65
2019-01-12T20:31:46.076Z,99622.88
2019-01-12T20:34:38.708Z,99612.77
2019-01-12T20:38:22.508Z,99616.99
2019-01-12T20:41:58.142Z,99610.72
2019-01-12T20:45:48.843Z,99608.38
2019-01-12T20:49:15.531Z,99601.37
2019-01-12T20:52:29.886Z,99593.45
2019-01-12T20:55:44.394Z,99592.23
2019-01-12T20:59:11.978Z,99585.55
2019-01-12T21:02:27.270Z,99579.46
2019-01-12T21:05:47.653Z,99576.58
2019-01-12T21:08:39.350Z,99574.52
2019-01-12T21:11:38.132Z,99574.94
2019-01-12T21:14:39.400Z,99574.63
2019-01-12T21:17:09.855Z,99572.89
2019-01-12T21:19:37.823Z,99564.05
2019-01-12T21:22:05.779Z,99564.05
2019-01-12T21:24:33.621Z,99549.33
2019-01-12T21:27:01.504Z,99553.24
2019-01-12T21:29:35.175Z,99555.91
2019-01-12T21:31:59.103Z,99541.20
2019-01-12T21:34:26.916Z,99548.89
2019-01-12T21:37:01.009Z,99543.25
2019-01-12T21:39:28.761Z,99540.48
2019-01-12T21:41:56.589Z,99546.77
2019-01-12T21:44:24.744Z,99545.20
2019-01-12T21:46:53.301Z,99531.52
2019-01-12T21:49:23.747Z,99534.98
2019-01-12T21:51:51.527Z,99546.28
2019-01-12T21:54:19.302Z,99531.38
2019-01-12T21:56:47.070Z,99537.84
2019-01-12T21:59:14.839Z,99543.02
2019-01-12T22:01:42.716Z,99541.14
2019-01-12T22:04:10.527Z,99534.03
2019-01-12T22:06:38.281Z,99538.16
2019-01-12T22:09:09.317Z,99535.37
2019-01-12T22:11:37.299Z,99530.42
2019-01-12T22:14:05.179Z,99530.13
2019-01-12T22:16:33.216Z,99526.22
2019-01-12T22:19:02.157Z,99524.97
2019-01-12T22:21:31.697Z,99521.61
2019-01-12T22:23:59.447Z,99525.70
2019-01-12T22:26:27.223Z,99523.63
2019-01-12T22:28:57.609Z,99530.42
2019-01-12T22:31:25.499Z,99520.33
2019-01-12T22:33:53.289Z,99521.45
2019-01-12T22:36:21.065Z,99519.13
2019-01-12T22:38:48.810Z,99516.84
2019-01-12T22:41:16.579Z,99520.57
2019-01-12T22:43:44.521Z,99516.55
2019-01-12T22:46:12.543Z,99513.21
2019-01-12T22:48:40.297Z,99520.04
2019-01-12T22:51:08.096Z,99519.63
2019-01-12T22:53:35.846Z,99518.70
2019-01-12T22:56:03.606Z,99521.27
2019-01-12T22:58:31.877Z,99523.65
2019-01-12T23:01:52.588Z,99520.37
2019-01-12T23:04:23.066Z,99525.09
2019-01-12T23:06:50.848Z,99515.83
2019-01-12T23:09:18.682Z,99520.66
2019-01-12T23:11:46.456Z,99522.81
2019-01-12T23:14:14.722Z,99520.57
2019-01-12T23:16:42.657Z,99524.81
2019-01-12T23:19:10.504Z,99518.94
2019-01-12T23:21:38.261Z,99520.14
2019-01-12T23:24:06.548Z,99512.23
2019-01-12T23:26:34.564Z,99512.70
2019-01-12T23:29:02.429Z,99514.41
2019-01-12T23:31:30.218Z,99511.50
2019-01-12T23:33:57.978Z,99498.52
2019-01-12T23:36:25.748Z,99497.64
2019-01-12T23:38:53.488Z,99504.84
2019-01-12T23:41:21.324Z,99493.66
2019-01-12T23:43:49.060Z,99491.80
2019-01-12T23:46:16.827Z,99493.91
2019-01-12T23:48:44.599Z,99492.77
2019-01-12T23:51:12.408Z,99496.75
2019-01-12T23:53:40.279Z,99494.53
2019-01-12T23:56:08.019Z,99486.05
2019-01-12T23:58:36.031Z,99489.58
